Time;durP1;ratioP1;P1;durP2;ratioP2;P2;SDS_P1;SDS_P2;PMS_P1;PMS_P2;Temp;Humidity;BMP_temperature;BMP_pressure;BME280_temperature;BME280_humidity;BME280_pressure;Samples;Min_cycle;Max_cycle;Signal;HPM_P1;HPM_P2
2023/10/03 00:01:22;;;;;;;19.52;12.15;;;23.00;91.60;;;;;;6242425;23;19996;-82
2023/10/03 00:03:50;;;;;;;15.95;12.02;;;23.00;91.60;;;;;;6242407;23;20003;-81
2023/10/03 00:06:15;;;;;;;13.60;11.68;;;23.00;91.60;;;;;;6242932;23;20011;-81
2023/10/03 00:08:44;;;;;;;13.88;12.48;;;23.00;91.80;;;;;;6242654;23;20008;-80
2023/10/03 00:11:18;;;;;;;15.35;11.70;;;22.90;91.50;;;;;;6241799;23;20331;-82
2023/10/03 00:13:43;;;;;;;15.05;12.23;;;22.90;91.60;;;;;;6242658;23;20004;-82
2023/10/03 00:16:09;;;;;;;15.50;11.93;;;22.90;91.60;;;;;;6242427;23;20075;-83
2023/10/03 00:18:35;;;;;;;12.52;10.90;;;22.90;91.60;;;;;;6242636;23;20000;-82
2023/10/03 00:21:01;;;;;;;14.88;11.93;;;22.90;91.70;;;;;;6242033;23;20004;-83
2023/10/03 00:23:27;;;;;;;13.88;12.27;;;22.90;91.60;;;;;;6242584;23;20007;-82
2023/10/03 00:25:59;;;;;;;14.68;11.70;;;22.90;91.50;;;;;;6242561;23;20023;-82
2023/10/03 00:28:26;;;;;;;14.50;11.70;;;22.90;91.50;;;;;;6215650;23;20315;-82
2023/10/03 00:30:52;;;;;;;13.85;11.82;;;22.90;91.50;;;;;;6241546;23;20062;-82
2023/10/03 00:33:19;;;;;;;14.45;11.02;;;22.90;91.50;;;;;;6242345;23;20004;-82
2023/10/03 00:35:47;;;;;;;14.88;11.20;;;22.90;91.40;;;;;;6215598;23;20129;-83
2023/10/03 00:38:15;;;;;;;13.60;10.82;;;22.90;91.50;;;;;;6215525;23;20004;-83
2023/10/03 00:40:48;;;;;;;12.65;11.35;;;22.80;91.50;;;;;;6240023;23;20436;-83
2023/10/03 00:43:14;;;;;;;14.43;12.02;;;22.80;91.50;;;;;;6241839;23;20027;-83
2023/10/03 00:45:40;;;;;;;13.52;12.00;;;22.80;91.50;;;;;;6241823;23;20000;-83
2023/10/03 00:48:08;;;;;;;14.18;12.10;;;22.80;91.40;;;;;;6241950;23;20004;-83
2023/10/03 00:50:35;;;;;;;15.38;11.95;;;22.80;91.40;;;;;;6241662;23;20008;-82
2023/10/03 00:53:09;;;;;;;18.02;11.40;;;22.80;91.40;;;;;;6214963;23;20050;-82
2023/10/03 00:55:37;;;;;;;13.68;11.27;;;22.80;91.50;;;;;;6242109;23;20027;-83
2023/10/03 00:58:17;;;;;;;16.08;11.02;;;22.80;91.50;;;;;;6241771;23;20053;-82
2023/10/03 01:00:49;;;;;;;14.80;12.35;;;22.80;91.50;;;;;;6242088;23;20426;-82
2023/10/03 01:03:32;;;;;;;14.15;11.65;;;22.80;91.70;;;;;;6242741;23;20004;-82
2023/10/03 01:06:04;;;;;;;13.15;11.43;;;22.80;91.40;;;;;;6214997;23;20079;-82
2023/10/03 01:08:38;;;;;;;14.52;11.77;;;22.80;91.40;;;;;;6242579;23;20087;-82
2023/10/03 01:11:15;;;;;;;14.27;11.75;;;22.80;91.40;;;;;;6242080;23;20007;-82
2023/10/03 01:13:41;;;;;;;17.25;12.07;;;22.80;91.40;;;;;;6241736;23;20404;-82
2023/10/03 01:16:07;;;;;;;15.05;11.98;;;22.70;91.30;;;;;;6241242;23;20004;-82
2023/10/03 01:18:37;;;;;;;13.63;11.70;;;22.70;91.40;;;;;;6241706;23;20008;-81
2023/10/03 01:21:05;;;;;;;12.45;11.15;;;22.70;91.40;;;;;;6241077;23;20000;-81
2023/10/03 01:23:35;;;;;;;15.02;12.20;;;22.60;91.50;;;;;;6241396;23;20461;-81
2023/10/03 01:26:01;;;;;;;15.88;11.60;;;22.60;91.50;;;;;;6241954;23;20009;-82
2023/10/03 01:28:27;;;;;;;13.50;11.98;;;22.60;91.50;;;;;;6242221;23;20012;-81
2023/10/03 01:30:53;;;;;;;12.60;11.23;;;22.60;91.80;;;;;;6241528;23;20007;-81
2023/10/03 01:33:19;;;;;;;14.65;12.07;;;22.60;91.70;;;;;;6241969;23;20004;-81
2023/10/03 01:35:44;;;;;;;15.38;12.18;;;22.60;91.70;;;;;;6243624;23;20422;-81
2023/10/03 01:38:10;;;;;;;13.07;11.73;;;22.60;91.60;;;;;;6244513;23;20007;-81
2023/10/03 01:40:36;;;;;;;15.85;11.95;;;22.60;91.70;;;;;;6244013;23;20007;-81
2023/10/03 01:43:02;;;;;;;16.50;12.32;;;22.60;91.70;;;;;;6244086;23;20001;-81
2023/10/03 01:45:32;;;;;;;13.63;11.45;;;22.50;91.60;;;;;;6243854;23;20000;-81
2023/10/03 01:47:59;;;;;;;;;;;22.60;91.70;;;;;;6244416;23;20019;-82
2023/10/03 01:50:28;;;;;;;14.38;11.32;;;22.60;91.70;;;;;;6243429;23;20389;-83
2023/10/03 01:52:54;;;;;;;12.60;11.25;;;22.50;91.70;;;;;;6243733;23;20012;-83
2023/10/03 01:55:21;;;;;;;12.32;11.02;;;22.50;91.70;;;;;;6244348;23;20011;-83
2023/10/03 01:57:47;;;;;;;15.88;12.25;;;22.50;91.70;;;;;;6243704;23;20007;-83
2023/10/03 02:00:25;;;;;;;13.93;11.48;;;22.40;91.70;;;;;;6216698;23;20375;-83
2023/10/03 02:02:53;;;;;;;14.98;12.48;;;22.40;91.70;;;;;;6243978;23;20054;-82
2023/10/03 02:05:23;;;;;;;18.27;12.90;;;22.40;91.70;;;;;;6244159;23;20035;-82
2023/10/03 02:10:35;;;;;;;13.32;11.43;;;22.40;91.70;;;;;;6243099;23;20023;-81
2023/10/03 02:13:11;;;;;;;14.70;11.75;;;22.40;91.70;;;;;;6243798;23;20007;-82
2023/10/03 02:15:38;;;;;;;14.20;10.85;;;22.30;91.80;;;;;;6243745;23;20004;-82
2023/10/03 02:18:05;;;;;;;14.60;11.52;;;22.20;91.80;;;;;;6243616;23;20453;-82
2023/10/03 02:20:38;;;;;;;14.27;12.05;;;22.20;91.90;;;;;;6242308;23;20441;-82
2023/10/03 02:23:05;;;;;;;14.48;11.88;;;22.10;91.90;;;;;;6243450;23;19997;-82
2023/10/03 02:25:37;;;;;;;16.95;12.85;;;22.10;92.00;;;;;;6243497;23;20004;-82
2023/10/03 02:28:05;;;;;;;17.30;13.95;;;22.00;92.00;;;;;;6243839;23;20000;-82
2023/10/03 02:30:31;;;;;;;16.48;14.10;;;22.00;92.10;;;;;;6243628;23;20000;-82
2023/10/03 02:33:05;;;;;;;20.17;15.43;;;21.90;92.20;;;;;;6243467;23;20028;-78
2023/10/03 02:35:33;;;;;;;18.35;16.38;;;22.00;92.20;;;;;;6243662;23;20001;-78
2023/10/03 02:37:59;;;;;;;23.90;18.20;;;22.00;92.20;;;;;;6244114;23;20050;-80
2023/10/03 02:40:29;;;;;;;21.85;19.23;;;22.00;92.20;;;;;;6243170;23;20304;-82
2023/10/03 02:42:55;;;;;;;23.13;20.63;;;22.00;92.20;;;;;;6243226;23;20000;-82
2023/10/03 02:45:25;;;;;;;26.17;21.77;;;22.00;92.30;;;;;;6242763;23;20718;-82
2023/10/03 02:48:29;;;;;;;26.92;22.70;;;22.00;92.30;;;;;;6243637;23;20338;-82
2023/10/03 02:50:48;;;;;;;26.33;21.73;;;22.00;92.30;;;;;;6236983;23;20015;-81
2023/10/03 02:53:20;;;;;;;24.83;20.40;;;22.00;92.30;;;;;;6243160;23;20026;-82
2023/10/03 02:55:47;;;;;;;30.85;21.90;;;22.00;92.40;;;;;;6243380;23;20465;-83
2023/10/03 02:58:14;;;;;;;28.67;22.52;;;22.00;92.40;;;;;;6243836;23;20000;-84
2023/10/03 03:00:40;;;;;;;24.70;21.02;;;22.00;92.40;;;;;;6243129;23;20028;-82
2023/10/03 03:03:06;;;;;;;25.05;20.55;;;22.00;92.40;;;;;;6243594;23;19996;-83
2023/10/03 03:05:36;;;;;;;24.90;20.63;;;22.00;92.40;;;;;;6243337;23;20008;-82
2023/10/03 03:08:25;;;;;;;23.45;19.83;;;22.00;92.30;;;;;;6216541;23;20427;-82
2023/10/03 03:10:57;;;;;;;24.45;20.63;;;22.00;92.30;;;;;;6243140;23;20011;-82
2023/10/03 03:13:33;;;;;;;23.88;20.58;;;22.00;92.30;;;;;;6243326;23;20074;-82
2023/10/03 03:16:04;;;;;;;21.77;19.30;;;21.90;92.30;;;;;;6243538;23;20426;-82
2023/10/03 03:18:41;;;;;;;24.17;20.92;;;22.00;92.40;;;;;;6243345;23;20000;-77
2023/10/03 03:21:20;;;;;;;26.38;20.92;;;22.00;92.40;;;;;;6242444;23;20000;-77
2023/10/03 03:23:56;;;;;;;23.15;20.35;;;22.00;92.40;;;;;;6242968;23;20022;-77
2023/10/03 03:26:22;;;;;;;30.83;21.77;;;22.00;92.30;;;;;;6243186;23;20379;-79
2023/10/03 03:28:51;;;;;;;23.83;20.73;;;21.90;92.30;;;;;;6243633;23;20000;-78
2023/10/03 03:33:46;;;;;;;26.55;21.40;;;21.90;92.40;;;;;;6244128;23;20008;-77
2023/10/03 03:36:22;;;;;;;24.85;20.25;;;21.90;92.30;;;;;;6242640;23;20007;-78
2023/10/03 03:38:49;;;;;;;25.35;20.70;;;21.90;92.40;;;;;;6243097;23;19996;-77
2023/10/03 03:41:16;;;;;;;24.42;19.85;;;21.90;92.40;;;;;;6242600;23;20041;-78
2023/10/03 03:43:44;;;;;;;25.42;21.27;;;21.90;92.30;;;;;;6242716;23;20155;-78
2023/10/03 03:46:10;;;;;;;22.02;19.40;;;21.90;92.30;;;;;;6243055;23;20001;-77
2023/10/03 03:48:36;;;;;;;25.80;19.48;;;21.90;92.30;;;;;;6242319;23;20000;-78
2023/10/03 03:51:06;;;;;;;26.30;22.00;;;21.80;92.30;;;;;;6242352;23;20004;-78
2023/10/03 03:53:32;;;;;;;24.63;19.42;;;21.80;92.30;;;;;;6244064;23;20008;-78
2023/10/03 03:56:04;;;;;;;23.40;20.35;;;21.90;92.30;;;;;;6243408;23;20007;-77
2023/10/03 03:58:31;;;;;;;24.90;20.88;;;21.80;92.30;;;;;;6244138;23;19996;-76
2023/10/03 04:00:58;;;;;;;24.88;20.52;;;21.80;92.30;;;;;;6242706;23;20096;-76
2023/10/03 04:03:24;;;;;;;25.45;19.60;;;21.80;92.40;;;;;;6215940;23;20324;-76
2023/10/03 04:05:50;;;;;;;25.35;20.13;;;21.80;92.40;;;;;;6242505;23;20004;-76
2023/10/03 04:08:16;;;;;;;24.10;20.50;;;21.80;92.40;;;;;;6245101;23;20024;-77
2023/10/03 04:10:45;;;;;;;22.27;19.50;;;21.80;92.50;;;;;;6244493;23;20059;-82
2023/10/03 04:13:17;;;;;;;24.77;20.13;;;21.70;92.50;;;;;;6243445;23;20004;-77
2023/10/03 04:15:44;;;;;;;26.98;20.75;;;21.80;92.50;;;;;;6242939;23;20375;-81
2023/10/03 04:18:11;;;;;;;24.02;19.42;;;21.80;92.40;;;;;;6241908;23;20004;-82
2023/10/03 04:20:39;;;;;;;20.65;17.80;;;21.80;92.30;;;;;;6241924;23;20063;-81
2023/10/03 04:23:07;;;;;;;22.75;18.50;;;21.80;92.50;;;;;;6242262;23;20004;-83
2023/10/03 04:25:33;;;;;;;25.65;18.55;;;21.80;92.30;;;;;;6242538;23;20007;-82
2023/10/03 04:28:04;;;;;;;22.98;19.33;;;21.80;92.20;;;;;;6242924;23;20350;-81
2023/10/03 04:30:30;;;;;;;22.35;18.55;;;21.70;92.20;;;;;;6242123;23;20339;-81
2023/10/03 04:32:57;;;;;;;21.20;18.92;;;21.70;92.20;;;;;;6242409;23;20000;-80
2023/10/03 04:35:23;;;;;;;19.90;17.13;;;21.70;92.20;;;;;;6242813;23;20004;-79
2023/10/03 04:37:54;;;;;;;21.35;17.52;;;21.60;92.20;;;;;;6242906;23;19997;-79
2023/10/03 04:40:22;;;;;;;21.23;17.85;;;21.60;92.20;;;;;;6239928;23;20027;-78
2023/10/03 04:42:53;;;;;;;21.25;16.63;;;21.50;92.30;;;;;;6240798;23;20816;-80
2023/10/03 04:45:19;;;;;;;27.10;19.80;;;21.40;92.40;;;;;;6241074;23;20000;-80
2023/10/03 04:47:47;;;;;;;24.52;19.13;;;21.40;92.50;;;;;;6241934;23;20008;-80
2023/10/03 04:50:24;;;;;;;20.92;17.02;;;21.30;92.50;;;;;;6242185;23;20007;-76
2023/10/03 04:52:50;;;;;;;22.88;19.05;;;21.20;92.60;;;;;;6241943;23;20016;-76
2023/10/03 04:55:20;;;;;;;22.50;19.60;;;21.20;92.70;;;;;;6241906;23;20040;-76
2023/10/03 04:57:48;;;;;;;21.20;17.73;;;21.20;92.70;;;;;;6216476;23;20342;-76
2023/10/03 05:00:15;;;;;;;24.92;19.05;;;21.20;92.70;;;;;;6244513;23;20395;-75
2023/10/03 05:02:46;;;;;;;24.88;18.33;;;21.20;92.70;;;;;;6245878;23;20069;-75
2023/10/03 05:05:18;;;;;;;21.98;17.50;;;21.30;92.70;;;;;;6244467;23;20062;-76
2023/10/03 05:07:44;;;;;;;20.52;17.75;;;21.30;92.60;;;;;;6217760;23;20011;-75
2023/10/03 05:10:10;;;;;;;21.40;17.17;;;21.30;92.60;;;;;;6216736;23;20036;-76
2023/10/03 05:12:37;;;;;;;23.10;16.67;;;21.30;92.50;;;;;;6243779;23;20000;-76
2023/10/03 05:15:06;;;;;;;21.90;16.83;;;21.40;92.40;;;;;;6245524;23;20345;-76
2023/10/03 05:17:33;;;;;;;28.65;19.27;;;21.30;92.40;;;;;;6245080;23;20004;-77
2023/10/03 05:19:59;;;;;;;22.80;17.23;;;21.30;92.30;;;;;;6244394;23;20004;-75
2023/10/03 05:22:25;;;;;;;22.48;18.45;;;21.30;92.40;;;;;;6243821;23;20027;-75
2023/10/03 05:24:52;;;;;;;25.02;18.73;;;21.30;92.40;;;;;;6242132;23;20015;-75
2023/10/03 05:27:18;;;;;;;27.08;18.02;;;21.30;92.40;;;;;;6242845;23;20000;-75
2023/10/03 05:29:44;;;;;;;21.50;16.85;;;21.30;92.50;;;;;;6244159;23;20011;-75
2023/10/03 05:32:10;;;;;;;21.90;17.52;;;21.30;92.40;;;;;;6243519;23;20079;-74
2023/10/03 05:34:35;;;;;;;20.95;17.13;;;21.30;92.40;;;;;;6243696;23;20418;-74
2023/10/03 05:37:10;;;;;;;25.75;17.05;;;21.30;92.30;;;;;;6245783;23;20477;-81
2023/10/03 05:39:36;;;;;;;20.35;17.35;;;21.30;92.30;;;;;;6244230;23;20000;-80
2023/10/03 05:42:02;;;;;;;21.48;16.30;;;21.30;92.30;;;;;;6243263;23;20047;-80
2023/10/03 05:44:28;;;;;;;22.55;17.10;;;21.30;92.30;;;;;;6239663;23;20032;-81
2023/10/03 05:46:55;;;;;;;21.27;17.60;;;21.30;92.30;;;;;;6242091;23;20000;-81
2023/10/03 05:49:24;;;;;;;19.58;16.40;;;21.30;92.40;;;;;;6238950;23;20434;-80
2023/10/03 05:51:57;;;;;;;18.35;15.63;;;21.20;92.40;;;;;;6241771;23;20091;-76
2023/10/03 05:54:25;;;;;;;18.42;15.68;;;21.20;92.50;;;;;;6244812;23;20000;-75
2023/10/03 05:56:51;;;;;;;21.33;17.05;;;21.20;92.50;;;;;;6243119;23;20358;-77
2023/10/03 05:59:20;;;;;;;20.58;16.15;;;21.20;92.50;;;;;;6244090;23;20000;-78
2023/10/03 06:01:49;;;;;;;26.63;16.92;;;21.20;92.60;;;;;;6244305;23;20000;-77
2023/10/03 06:04:16;;;;;;;21.50;17.23;;;21.20;92.60;;;;;;6244280;23;20000;-77
2023/10/03 06:06:43;;;;;;;20.63;16.65;;;21.20;92.60;;;;;;6244289;23;20000;-78
2023/10/03 06:09:10;;;;;;;25.48;21.05;;;21.10;92.70;;;;;;6218615;23;20450;-77
2023/10/03 06:11:39;;;;;;;22.23;15.55;;;21.10;92.90;;;;;;6244213;23;20028;-77
2023/10/03 06:14:05;;;;;;;17.40;14.45;;;21.00;93.00;;;;;;6243092;23;20001;-77
2023/10/03 06:16:31;;;;;;;20.92;17.15;;;20.90;93.00;;;;;;6244159;23;20303;-77
2023/10/03 06:18:57;;;;;;;18.95;16.55;;;20.90;93.00;;;;;;6243648;23;20004;-77
2023/10/03 06:21:23;;;;;;;19.90;16.83;;;20.90;93.10;;;;;;6246116;23;20502;-78
2023/10/03 06:23:50;;;;;;;19.80;14.73;;;21.00;93.10;;;;;;6246554;23;20024;-77
2023/10/03 06:26:18;;;;;;;21.17;17.63;;;21.00;93.10;;;;;;6219335;23;20008;-77
2023/10/03 06:28:50;;;;;;;24.13;17.63;;;21.00;93.10;;;;;;6245412;23;20004;-78
2023/10/03 06:31:16;;;;;;;20.55;17.02;;;21.00;93.20;;;;;;6246587;23;20004;-78
2023/10/03 06:33:43;;;;;;;26.08;18.23;;;21.00;93.20;;;;;;6246747;23;20380;-78
2023/10/03 06:36:09;;;;;;;28.10;21.98;;;21.00;93.20;;;;;;6245513;23;20079;-79
2023/10/03 06:38:36;;;;;;;21.92;17.83;;;21.00;93.20;;;;;;6247098;23;20065;-78
2023/10/03 06:41:03;;;;;;;19.20;15.05;;;21.00;93.30;;;;;;6245977;23;20426;-78
2023/10/03 06:43:29;;;;;;;21.05;17.05;;;21.00;93.20;;;;;;6246771;23;20000;-79
2023/10/03 06:45:55;;;;;;;20.85;17.45;;;21.00;93.30;;;;;;6243130;23;20008;-79
2023/10/03 06:48:23;;;;;;;19.13;15.30;;;21.10;93.30;;;;;;6246871;23;20377;-78
2023/10/03 06:50:48;;;;;;;24.42;19.50;;;21.10;93.30;;;;;;6245237;23;20379;-78
2023/10/03 06:53:15;;;;;;;20.58;17.08;;;21.10;93.30;;;;;;6246446;23;20023;-78
2023/10/03 06:55:41;;;;;;;24.58;18.83;;;21.10;93.60;;;;;;6244839;23;20007;-87
2023/10/03 06:58:07;;;;;;;29.88;19.58;;;21.10;93.40;;;;;;6242424;23;20005;-85
2023/10/03 07:00:32;;;;;;;24.75;19.05;;;21.10;93.50;;;;;;6245766;23;20020;-86
2023/10/03 07:02:59;;;;;;;31.38;23.40;;;21.20;93.50;;;;;;6246564;23;20008;-85
2023/10/03 07:05:25;;;;;;;20.70;18.15;;;21.20;93.60;;;;;;6247727;23;20032;-88
2023/10/03 07:07:51;;;;;;;22.50;19.48;;;21.20;93.60;;;;;;6247659;23;20075;-83
2023/10/03 07:10:17;;;;;;;18.15;14.95;;;21.20;93.40;;;;;;6246927;23;20054;-84
2023/10/03 07:12:43;;;;;;;22.65;15.77;;;21.30;93.50;;;;;;6246235;23;20004;-83
2023/10/03 07:15:09;;;;;;;21.60;16.00;;;21.40;93.40;;;;;;6245240;23;20177;-78
2023/10/03 07:17:35;;;;;;;18.75;14.55;;;21.50;93.40;;;;;;6246854;23;20545;-78
2023/10/03 07:20:10;;;;;;;20.05;15.27;;;21.60;93.30;;;;;;6245958;23;20031;-78
2023/10/03 07:22:39;;;;;;;17.60;15.10;;;21.70;93.20;;;;;;6243999;23;20000;-80
2023/10/03 07:25:08;;;;;;;21.13;16.88;;;21.80;93.10;;;;;;6245611;23;20000;-85
2023/10/03 07:27:35;;;;;;;17.92;15.50;;;22.00;92.90;;;;;;6220881;23;20024;-87
2023/10/03 07:30:03;;;;;;;24.63;16.60;;;22.10;92.90;;;;;;6248946;23;20004;-87
2023/10/03 07:32:32;;;;;;;19.13;16.98;;;22.20;92.70;;;;;;6219167;23;20330;-76
2023/10/03 07:34:59;;;;;;;20.75;16.10;;;22.30;92.50;;;;;;6254677;23;19999;-84
2023/10/03 07:37:25;;;;;;;18.02;15.43;;;22.40;92.40;;;;;;6267949;23;20001;-87
2023/10/03 07:39:51;;;;;;;20.33;16.33;;;22.50;92.30;;;;;;6264577;23;20023;-77
2023/10/03 07:42:19;;;;;;;18.95;15.60;;;22.60;92.10;;;;;;6248545;23;20129;-77
2023/10/03 07:44:44;;;;;;;18.23;15.40;;;22.60;92.20;;;;;;6221780;23;20661;-77
2023/10/03 07:47:12;;;;;;;22.80;18.05;;;22.60;91.60;;;;;;6246372;23;20000;-77
2023/10/03 07:49:41;;;;;;;26.58;20.98;;;22.70;91.60;;;;;;6216030;23;20004;-76
2023/10/03 07:52:06;;;;;;;29.05;22.70;;;22.60;91.60;;;;;;6243886;23;20091;-78
2023/10/03 07:54:33;;;;;;;31.13;25.30;;;22.60;91.70;;;;;;6245370;23;20032;-77
2023/10/03 07:57:04;;;;;;;34.95;25.25;;;22.60;91.60;;;;;;6244018;23;19996;-77
2023/10/03 07:59:30;;;;;;;24.58;21.13;;;22.50;91.80;;;;;;6245282;23;20089;-75
2023/10/03 08:01:57;;;;;;;31.63;23.58;;;22.40;92.00;;;;;;6246151;23;19996;-76
2023/10/03 08:04:23;;;;;;;23.23;20.75;;;22.40;92.00;;;;;;6246050;23;20001;-74
2023/10/03 08:06:49;;;;;;;20.48;17.25;;;22.40;92.10;;;;;;6246513;23;20050;-74
2023/10/03 08:09:15;;;;;;;22.70;16.65;;;22.50;92.20;;;;;;6218950;23;20035;-75
2023/10/03 08:11:46;;;;;;;19.75;17.42;;;22.60;92.10;;;;;;6245732;23;20435;-75
2023/10/03 08:14:13;;;;;;;28.70;20.48;;;22.60;92.10;;;;;;6245839;23;20000;-75
2023/10/03 08:16:43;;;;;;;30.25;25.65;;;22.70;92.00;;;;;;6245393;23;20004;-82
2023/10/03 08:19:21;;;;;;;18.63;16.05;;;22.70;92.00;;;;;;6241929;23;20000;-76
2023/10/03 08:21:53;;;;;;;21.05;16.08;;;22.80;92.00;;;;;;6217978;23;20004;-75
2023/10/03 08:24:24;;;;;;;24.95;20.65;;;22.90;92.00;;;;;;6245639;23;20000;-75
2023/10/03 08:26:58;;;;;;;28.83;20.48;;;23.00;91.80;;;;;;6246095;23;20431;-76
2023/10/03 08:29:25;;;;;;;22.33;17.25;;;23.10;91.70;;;;;;6245571;23;20004;-75
2023/10/03 08:31:57;;;;;;;26.70;20.83;;;23.20;91.60;;;;;;6244484;23;20053;-74
2023/10/03 08:34:25;;;;;;;18.48;15.50;;;23.30;91.60;;;;;;6246805;23;20000;-74
2023/10/03 08:36:54;;;;;;;18.58;13.45;;;23.50;91.60;;;;;;6241597;23;20000;-83
2023/10/03 08:39:22;;;;;;;16.48;14.77;;;23.70;91.50;;;;;;6244735;23;20343;-82
2023/10/03 08:41:59;;;;;;;20.60;16.92;;;23.90;91.40;;;;;;6245117;23;20004;-81
2023/10/03 08:44:31;;;;;;;19.58;15.88;;;24.10;90.70;;;;;;6244808;23;19993;-82
2023/10/03 08:46:59;;;;;;;19.73;13.75;;;24.20;90.60;;;;;;6244178;23;19997;-81
2023/10/03 08:49:38;;;;;;;16.33;12.63;;;24.30;90.70;;;;;;6244772;23;20000;-82
2023/10/03 08:52:09;;;;;;;16.25;13.05;;;24.50;90.60;;;;;;6218590;23;20323;-81
2023/10/03 08:54:40;;;;;;;15.90;13.55;;;24.70;90.50;;;;;;6245067;23;20011;-81
2023/10/03 08:57:10;;;;;;;18.75;13.35;;;24.90;90.20;;;;;;6245264;23;20015;-82
2023/10/03 08:59:40;;;;;;;16.45;12.02;;;25.10;89.60;;;;;;6243302;23;19997;-80
2023/10/03 09:02:09;;;;;;;;;;;25.30;89.40;;;;;;6245373;23;20005;-83
2023/10/03 09:04:39;;;;;;;18.75;11.75;;;25.40;88.60;;;;;;6245759;23;19904;-83
2023/10/03 09:07:11;;;;;;;17.17;11.98;;;25.60;88.50;;;;;;6244693;23;20010;-83
2023/10/03 09:09:41;;;;;;;12.00;10.05;;;25.70;88.00;;;;;;6217739;23;20083;-82
2023/10/03 09:12:12;;;;;;;13.63;9.35;;;25.80;87.50;;;;;;6246030;23;20457;-82
2023/10/03 09:14:38;;;;;;;15.95;11.35;;;25.90;86.60;;;;;;6218814;23;20008;-82
2023/10/03 09:17:07;;;;;;;10.65;8.30;;;26.00;84.80;;;;;;6245593;23;20001;-83
2023/10/03 09:19:44;;;;;;;11.82;8.75;;;26.10;85.80;;;;;;6245391;23;20058;-82
2023/10/03 09:22:26;;;;;;;14.38;9.13;;;26.20;85.10;;;;;;6243554;23;20565;-82
2023/10/03 09:24:55;;;;;;;12.02;8.95;;;26.30;84.50;;;;;;6245864;23;20506;-84
2023/10/03 09:27:29;;;;;;;8.57;7.10;;;26.40;83.30;;;;;;6244002;23;20004;-84
2023/10/03 09:29:58;;;;;;;10.07;7.00;;;26.40;84.00;;;;;;6241982;23;20061;-85
2023/10/03 09:32:24;;;;;;;11.95;9.45;;;26.50;84.10;;;;;;6219066;23;20000;-85
2023/10/03 09:34:57;;;;;;;15.02;9.90;;;26.70;83.70;;;;;;6245958;23;19996;-85
2023/10/03 09:37:30;;;;;;;23.75;13.85;;;26.70;83.10;;;;;;6246805;23;20598;-85
2023/10/03 09:40:01;;;;;;;11.27;8.60;;;26.70;80.70;;;;;;6245100;23;19997;-85
2023/10/03 09:42:30;;;;;;;10.35;8.50;;;26.70;82.60;;;;;;6246318;23;20004;-84
2023/10/03 09:44:59;;;;;;;9.35;7.60;;;26.80;82.60;;;;;;6246053;23;20004;-83
2023/10/03 09:47:32;;;;;;;17.45;9.35;;;26.90;82.60;;;;;;6242510;23;20011;-83
2023/10/03 09:50:08;;;;;;;12.07;7.82;;;27.10;81.90;;;;;;6243365;23;20386;-84
2023/10/03 09:52:37;;;;;;;11.63;8.00;;;27.20;81.90;;;;;;6243582;23;20478;-85
2023/10/03 09:58:00;;;;;;;17.30;8.75;;;27.50;80.90;;;;;;6220301;23;20016;-85
2023/10/03 10:00:39;;;;;;;12.93;8.45;;;27.70;80.80;;;;;;6244665;23;20024;-84
2023/10/03 10:03:19;;;;;;;8.10;6.75;;;27.80;80.40;;;;;;6245505;23;20008;-84
2023/10/03 10:06:19;;;;;;;7.97;6.28;;;27.90;79.70;;;;;;6245372;23;20031;-83
2023/10/03 10:08:59;;;;;;;11.35;6.93;;;28.00;78.60;;;;;;6245176;23;20010;-84
2023/10/03 10:11:27;;;;;;;9.00;7.20;;;28.20;78.00;;;;;;6244408;23;20442;-84
2023/10/03 10:14:10;;;;;;;10.90;6.10;;;28.40;77.20;;;;;;6218310;23;20004;-84
2023/10/03 10:17:04;;;;;;;9.88;5.85;;;28.50;76.80;;;;;;6246266;23;20004;-83
2023/10/03 10:20:07;;;;;;;13.77;6.75;;;28.70;76.40;;;;;;6245843;23;20000;-84
2023/10/03 10:25:41;;;;;;;10.68;6.47;;;29.00;74.80;;;;;;6243180;23;20091;-84
2023/10/03 10:28:09;;;;;;;12.98;6.97;;;29.10;74.70;;;;;;6245805;23;20082;-83
2023/10/03 10:30:39;;;;;;;9.20;5.43;;;29.10;74.00;;;;;;6245262;23;20004;-84
2023/10/03 10:33:20;;;;;;;8.00;5.53;;;29.20;73.70;;;;;;6218673;23;20011;-84
2023/10/03 10:35:56;;;;;;;7.18;5.80;;;29.30;73.60;;;;;;6245511;23;20383;-83
2023/10/03 10:38:37;;;;;;;7.75;5.88;;;29.40;73.60;;;;;;6246642;23;20007;-84
2023/10/03 10:41:12;;;;;;;12.65;5.65;;;29.50;72.80;;;;;;6248044;23;20067;-85
2023/10/03 10:44:15;;;;;;;8.60;5.13;;;29.60;72.90;;;;;;6247902;23;20057;-84
2023/10/03 10:46:45;;;;;;;17.08;5.82;;;29.80;72.80;;;;;;6248202;23;20020;-83
2023/10/03 10:49:33;;;;;;;7.32;5.18;;;29.90;72.60;;;;;;6221128;23;20015;-82
2023/10/03 10:52:09;;;;;;;13.10;6.03;;;30.10;71.20;;;;;;6247209;23;20103;-82
2023/10/03 10:54:39;;;;;;;12.55;5.25;;;30.10;71.40;;;;;;6247655;23;20008;-82
2023/10/03 10:57:10;;;;;;;11.07;5.75;;;30.30;71.20;;;;;;6246554;23;20004;-81
2023/10/03 10:59:39;;;;;;;7.80;5.20;;;30.30;71.20;;;;;;6249293;23;20023;-84
2023/10/03 11:02:26;;;;;;;6.88;5.35;;;30.40;71.10;;;;;;6220689;23;20008;-86
2023/10/03 11:04:56;;;;;;;10.32;5.53;;;30.50;71.20;;;;;;6247801;23;19996;-85
2023/10/03 11:07:23;;;;;;;12.20;6.57;;;30.60;71.20;;;;;;6247041;23;19996;-85
2023/10/03 11:09:54;;;;;;;12.18;6.57;;;30.70;70.90;;;;;;6246899;23;20000;-84
2023/10/03 11:12:27;;;;;;;6.38;5.45;;;30.70;70.90;;;;;;6220546;23;20411;-83
2023/10/03 11:14:54;;;;;;;9.65;6.45;;;30.80;71.40;;;;;;6247210;23;20075;-84
2023/10/03 11:17:24;;;;;;;8.02;6.43;;;30.90;72.00;;;;;;6247314;23;19996;-84
2023/10/03 11:19:51;;;;;;;11.73;6.10;;;30.90;72.30;;;;;;6247257;23;20470;-82
2023/10/03 11:22:17;;;;;;;13.68;7.20;;;31.00;72.80;;;;;;6247005;23;20000;-85
2023/10/03 11:24:45;;;;;;;9.35;6.25;;;31.10;72.70;;;;;;6246868;23;20000;-85
2023/10/03 11:27:28;;;;;;;6.82;6.05;;;31.10;72.60;;;;;;6247000;23;20003;-85
2023/10/03 11:29:55;;;;;;;9.85;6.43;;;31.20;72.90;;;;;;6247270;23;20000;-84
2023/10/03 11:32:25;;;;;;;12.65;7.07;;;31.40;73.20;;;;;;6247141;23;20075;-84
2023/10/03 11:34:52;;;;;;;8.85;6.78;;;31.50;72.60;;;;;;6246771;23;20488;-83
2023/10/03 11:37:33;;;;;;;10.38;6.50;;;31.60;72.20;;;;;;6246317;23;20071;-84
2023/10/03 11:40:07;;;;;;;8.10;5.22;;;31.80;71.60;;;;;;6219830;23;20004;-85
2023/10/03 11:42:33;;;;;;;6.53;5.45;;;32.00;71.30;;;;;;6246971;23;20000;-84
2023/10/03 11:45:03;;;;;;;10.15;5.55;;;32.10;70.50;;;;;;6246624;23;20304;-85
2023/10/03 11:47:28;;;;;;;6.05;5.07;;;32.20;69.70;;;;;;6246679;23;20000;-85
2023/10/03 11:49:56;;;;;;;6.10;4.88;;;32.30;68.50;;;;;;6246646;23;20062;-84
2023/10/03 11:52:23;;;;;;;11.25;6.47;;;32.40;68.30;;;;;;6242482;22;20194;-81
2023/10/03 11:54:49;;;;;;;4.97;4.30;;;32.40;67.00;;;;;;6246020;23;20028;-81
2023/10/03 11:57:15;;;;;;;6.43;4.80;;;32.50;67.60;;;;;;6246159;23;20000;-81
2023/10/03 11:59:41;;;;;;;6.57;4.47;;;32.60;66.80;;;;;;6245614;23;20000;-81
2023/10/03 12:02:06;;;;;;;5.97;4.80;;;32.70;66.30;;;;;;6245902;23;20414;-81
2023/10/03 12:04:37;;;;;;;9.30;4.30;;;32.70;65.20;;;;;;6245769;23;20023;-81
2023/10/03 12:07:03;;;;;;;7.88;4.75;;;32.70;65.70;;;;;;6245016;23;20214;-81
2023/10/03 12:09:30;;;;;;;6.47;4.80;;;32.70;65.40;;;;;;6218823;23;20012;-81
2023/10/03 12:11:57;;;;;;;6.38;4.50;;;32.70;64.90;;;;;;6245821;23;20091;-82
2023/10/03 12:14:23;;;;;;;5.72;4.80;;;32.60;65.40;;;;;;6218463;23;20004;-81
2023/10/03 12:16:51;;;;;;;5.38;4.60;;;32.70;65.40;;;;;;6245283;23;20012;-80
2023/10/03 12:19:21;;;;;;;6.75;5.22;;;32.70;65.60;;;;;;6245360;23;19999;-81
2023/10/03 12:21:47;;;;;;;;;;;32.80;65.80;;;;;;6219578;23;20039;-81
2023/10/03 12:24:12;;;;;;;7.75;5.32;;;32.80;65.70;;;;;;6219213;23;19900;-81
2023/10/03 12:26:38;;;;;;;6.72;5.57;;;32.80;66.20;;;;;;6245987;23;20023;-81
2023/10/03 12:29:04;;;;;;;9.18;6.10;;;32.80;66.60;;;;;;6245824;23;20430;-81
2023/10/03 12:31:33;;;;;;;14.93;6.30;;;32.90;66.60;;;;;;6245700;23;20027;-81
2023/10/03 12:34:01;;;;;;;8.35;6.60;;;32.90;66.50;;;;;;6245468;23;20066;-81
2023/10/03 12:36:29;;;;;;;9.65;5.93;;;32.80;66.30;;;;;;6244212;23;20094;-89
2023/10/03 12:38:56;;;;;;;8.32;5.82;;;32.70;66.50;;;;;;6246202;23;20004;-88
2023/10/03 12:41:29;;;;;;;11.45;5.80;;;32.70;66.40;;;;;;6247044;23;20003;-87
2023/10/03 12:43:55;;;;;;;8.00;5.30;;;32.60;66.50;;;;;;6245367;23;20209;-88
2023/10/03 12:46:20;;;;;;;7.90;4.90;;;32.60;66.90;;;;;;6246821;23;20028;-88
2023/10/03 12:48:46;;;;;;;7.00;4.85;;;32.60;67.40;;;;;;6247160;23;20480;-88
2023/10/03 12:51:13;;;;;;;7.05;5.20;;;32.50;67.70;;;;;;6247142;23;20004;-87
2023/10/03 12:53:39;;;;;;;8.70;5.20;;;32.40;67.60;;;;;;6220197;23;20346;-88
2023/10/03 12:56:08;;;;;;;7.38;5.45;;;32.40;67.50;;;;;;6247076;23;20004;-88